Time;durP1;ratioP1;P1;durP2;ratioP2;P2;SDS_P1;SDS_P2;PMS_P1;PMS_P2;Temp;Humidity;BMP_temperature;BMP_pressure;BME280_temperature;BME280_humidity;BME280_pressure;Samples;Min_cycle;Max_cycle;Signal;HPM_P1;HPM_P2
2023/08/12 00:00:30;;;;;;;3.47;2.80;;;;;;;;;;5084186;28;20378;-81
2023/08/12 00:02:56;;;;;;;3.33;3.03;;;;;;;;;;5084216;28;20416;-81
2023/08/12 00:05:22;;;;;;;3.22;2.75;;;;;;;;;;5077015;28;20429;-82
2023/08/12 00:07:48;;;;;;;2.85;2.65;;;;;;;;;;5077125;28;20459;-82
2023/08/12 00:10:15;;;;;;;3.03;2.73;;;;;;;;;;5076296;28;20391;-82
2023/08/12 00:12:41;;;;;;;2.88;2.67;;;;;;;;;;5076278;28;20413;-82
2023/08/12 00:15:08;;;;;;;3.75;2.80;;;;;;;;;;5075620;28;20386;-82
2023/08/12 00:17:34;;;;;;;2.92;2.70;;;;;;;;;;5076450;28;20383;-81
2023/08/12 00:20:00;;;;;;;3.13;2.83;;;;;;;;;;5077068;28;20415;-81
2023/08/12 00:22:26;;;;;;;2.90;2.60;;;;;;;;;;5076245;28;20469;-82
2023/08/12 00:24:52;;;;;;;2.85;2.65;;;;;;;;;;5061769;28;20387;-81
2023/08/12 00:27:19;;;;;;;2.80;2.60;;;;;;;;;;5075948;28;20407;-82
2023/08/12 00:29:45;;;;;;;3.00;2.80;;;;;;;;;;5076662;28;20388;-82
2023/08/12 00:32:11;;;;;;;2.95;2.65;;;;;;;;;;5075991;28;20450;-81
2023/08/12 00:34:37;;;;;;;3.07;2.80;;;;;;;;;;5076276;28;20416;-81
2023/08/12 00:37:03;;;;;;;2.83;2.63;;;;;;;;;;5085753;28;20378;-82
2023/08/12 00:39:29;;;;;;;3.88;2.70;;;;;;;;;;5095062;28;20394;-81
2023/08/12 00:41:55;;;;;;;4.38;2.70;;;;;;;;;;5096476;28;20747;-82
2023/08/12 00:44:21;;;;;;;2.95;2.67;;;;;;;;;;5096805;28;20427;-82
2023/08/12 00:46:48;;;;;;;2.97;2.75;;;;;;;;;;5074745;28;20372;-82
2023/08/12 00:49:14;;;;;;;2.97;2.67;;;;;;;;;;5069922;28;20390;-81
2023/08/12 00:51:42;;;;;;;3.28;2.97;;;;;;;;;;5078263;28;20963;-81
2023/08/12 00:54:08;;;;;;;2.88;2.63;;;;;;;;;;5077482;28;20757;-82
2023/08/12 00:56:35;;;;;;;3.00;2.80;;;;;;;;;;5093499;28;20382;-82
2023/08/12 00:59:02;;;;;;;2.90;2.60;;;;;;;;;;5084575;28;20382;-82
2023/08/12 01:01:28;;;;;;;3.10;2.90;;;;;;;;;;5095336;28;20412;-81
2023/08/12 01:03:54;;;;;;;4.88;2.90;;;;;;;;;;5063579;28;20459;-82
2023/08/12 01:06:20;;;;;;;2.80;2.60;;;;;;;;;;5084992;28;20473;-81
2023/08/12 01:08:46;;;;;;;3.22;3.00;;;;;;;;;;5077393;28;20413;-81
2023/08/12 01:11:26;;;;;;;2.75;2.53;;;;;;;;;;5095098;28;20385;-81
2023/08/12 01:14:02;;;;;;;2.80;2.60;;;;;;;;;;5091177;28;20368;-82
2023/08/12 01:16:31;;;;;;;2.97;2.63;;;;;;;;;;5070147;28;20383;-82
2023/08/12 01:18:57;;;;;;;3.20;2.90;;;;;;;;;;5094118;28;20366;-81
2023/08/12 01:21:25;;;;;;;2.80;2.60;;;;;;;;;;5065506;28;20462;-82
2023/08/12 01:23:51;;;;;;;2.72;2.53;;;;;;;;;;5095470;28;20418;-82
2023/08/12 01:26:17;;;;;;;3.40;3.10;;;;;;;;;;5086207;28;20439;-82
2023/08/12 01:28:43;;;;;;;2.78;2.58;;;;;;;;;;5079209;28;20442;-83
2023/08/12 01:31:12;;;;;;;3.17;2.45;;;;;;;;;;5057045;28;20419;-81
2023/08/12 01:33:44;;;;;;;4.32;2.70;;;;;;;;;;5075473;28;20399;-81
2023/08/12 01:36:13;;;;;;;3.30;2.80;;;;;;;;;;5076544;28;20403;-81
2023/08/12 01:38:39;;;;;;;3.63;3.10;;;;;;;;;;5092729;28;20379;-81
2023/08/12 01:41:07;;;;;;;2.90;2.50;;;;;;;;;;5073354;28;20415;-81
2023/08/12 01:43:33;;;;;;;2.80;2.60;;;;;;;;;;5079366;28;20527;-81
2023/08/12 01:45:59;;;;;;;2.83;2.63;;;;;;;;;;5078367;28;20423;-81
2023/08/12 01:48:25;;;;;;;3.00;2.80;;;;;;;;;;5078911;28;20392;-82
2023/08/12 01:50:51;;;;;;;3.10;2.80;;;;;;;;;;5078054;28;20383;-81
2023/08/12 01:53:19;;;;;;;2.83;2.63;;;;;;;;;;5080633;28;20392;-81
2023/08/12 01:55:45;;;;;;;3.30;2.90;;;;;;;;;;5078345;28;20455;-81
2023/08/12 01:58:12;;;;;;;3.00;2.80;;;;;;;;;;5077279;28;20367;-80
2023/08/12 02:00:38;;;;;;;3.55;2.90;;;;;;;;;;5077454;28;20468;-81
2023/08/12 02:03:04;;;;;;;3.75;3.08;;;;;;;;;;5077655;28;20443;-81
2023/08/12 02:05:30;;;;;;;3.17;2.87;;;;;;;;;;5077874;28;20382;-81
2023/08/12 02:07:56;;;;;;;2.87;2.67;;;;;;;;;;5087312;28;20446;-81
2023/08/12 02:10:22;;;;;;;3.40;3.10;;;;;;;;;;5082411;28;20851;-80
2023/08/12 02:12:48;;;;;;;2.90;2.70;;;;;;;;;;5087920;28;20383;-80
2023/08/12 02:15:14;;;;;;;2.92;2.45;;;;;;;;;;5080308;28;20734;-81
2023/08/12 02:17:40;;;;;;;3.50;2.95;;;;;;;;;;5092214;28;20415;-81
2023/08/12 02:20:06;;;;;;;2.88;2.67;;;;;;;;;;5083328;28;20764;-81
2023/08/12 02:22:32;;;;;;;3.30;3.00;;;;;;;;;;5086432;28;20493;-81
2023/08/12 02:24:59;;;;;;;3.40;3.10;;;;;;;;;;5087381;28;20397;-81
2023/08/12 02:27:25;;;;;;;3.03;2.83;;;;;;;;;;5088694;28;20387;-81
2023/08/12 02:29:51;;;;;;;3.33;2.80;;;;;;;;;;5085249;28;20755;-82
2023/08/12 02:32:17;;;;;;;2.88;2.67;;;;;;;;;;5084933;28;20387;-80
2023/08/12 02:34:43;;;;;;;2.95;2.60;;;;;;;;;;5077488;28;20417;-80
2023/08/12 02:37:12;;;;;;;3.00;2.80;;;;;;;;;;5077044;28;20418;-80
2023/08/12 02:39:38;;;;;;;3.10;2.90;;;;;;;;;;5077622;28;20391;-79
2023/08/12 02:42:04;;;;;;;3.13;2.90;;;;;;;;;;5077606;28;20765;-82
2023/08/12 02:44:30;;;;;;;3.40;2.88;;;;;;;;;;5077591;28;20395;-82
2023/08/12 02:46:56;;;;;;;3.15;2.92;;;;;;;;;;5077531;28;20466;-81
2023/08/12 02:49:22;;;;;;;3.10;2.80;;;;;;;;;;5070627;28;20460;-82
2023/08/12 02:51:48;;;;;;;2.83;2.63;;;;;;;;;;5081783;28;20390;-81
2023/08/12 02:54:14;;;;;;;2.92;2.72;;;;;;;;;;5078812;28;20382;-82
2023/08/12 02:56:40;;;;;;;3.67;2.97;;;;;;;;;;5094176;28;20459;-82
2023/08/12 02:59:06;;;;;;;2.75;2.55;;;;;;;;;;5093301;28;20421;-81
2023/08/12 03:01:32;;;;;;;3.20;2.90;;;;;;;;;;5089677;28;20379;-81
2023/08/12 03:03:58;;;;;;;3.00;2.80;;;;;;;;;;5093969;28;20423;-82
2023/08/12 03:06:24;;;;;;;3.07;2.80;;;;;;;;;;5091038;28;20403;-82
2023/08/12 03:08:50;;;;;;;3.23;2.53;;;;;;;;;;5093418;28;20390;-82
2023/08/12 03:11:18;;;;;;;2.90;2.60;;;;;;;;;;5093007;28;20765;-81
2023/08/12 03:13:44;;;;;;;2.88;2.67;;;;;;;;;;5092138;28;20393;-81
2023/08/12 03:16:14;;;;;;;3.00;2.80;;;;;;;;;;5092641;28;20431;-81
2023/08/12 03:18:40;;;;;;;3.03;2.80;;;;;;;;;;5090511;28;20451;-81
2023/08/12 03:21:06;;;;;;;2.83;2.63;;;;;;;;;;5078479;28;20424;-81
2023/08/12 03:23:32;;;;;;;3.22;2.92;;;;;;;;;;5077546;28;20434;-82
2023/08/12 03:25:58;;;;;;;2.72;2.53;;;;;;;;;;5077556;28;20395;-82
2023/08/12 03:28:24;;;;;;;2.75;2.55;;;;;;;;;;5077102;28;20841;-81
2023/08/12 03:30:52;;;;;;;2.97;2.70;;;;;;;;;;5091776;28;20401;-81
2023/08/12 03:33:18;;;;;;;2.92;2.63;;;;;;;;;;5097451;28;20394;-82
2023/08/12 03:35:47;;;;;;;2.75;2.55;;;;;;;;;;5082995;28;20384;-81
2023/08/12 03:38:14;;;;;;;2.78;2.58;;;;;;;;;;5096426;28;20532;-82
2023/08/12 03:40:40;;;;;;;3.25;2.90;;;;;;;;;;5097127;28;20378;-81
2023/08/12 03:43:06;;;;;;;2.97;2.78;;;;;;;;;;5080081;28;20419;-81
2023/08/12 03:45:32;;;;;;;3.75;2.92;;;;;;;;;;5086585;28;20744;-82
2023/08/12 03:47:58;;;;;;;3.80;2.97;;;;;;;;;;5083193;28;20425;-81
2023/08/12 03:50:24;;;;;;;3.13;2.93;;;;;;;;;;5089119;28;20376;-82
2023/08/12 03:52:50;;;;;;;3.03;2.73;;;;;;;;;;5076737;28;20390;-81
2023/08/12 03:55:16;;;;;;;3.33;3.03;;;;;;;;;;5077226;28;20451;-81
2023/08/12 03:57:42;;;;;;;3.10;2.90;;;;;;;;;;5077373;28;20380;-81
2023/08/12 04:00:08;;;;;;;2.97;2.78;;;;;;;;;;5079966;28;20840;-82
2023/08/12 04:02:37;;;;;;;3.00;2.80;;;;;;;;;;5087293;28;20441;-81
2023/08/12 04:05:03;;;;;;;3.33;3.03;;;;;;;;;;5078272;28;20491;-81
2023/08/12 04:07:29;;;;;;;2.87;2.67;;;;;;;;;;5095704;28;20410;-82
2023/08/12 04:09:55;;;;;;;2.80;2.60;;;;;;;;;;5097316;28;20730;-81
2023/08/12 04:12:21;;;;;;;2.83;2.63;;;;;;;;;;5097091;28;20386;-82
2023/08/12 04:14:47;;;;;;;3.17;2.95;;;;;;;;;;5091607;28;20799;-81
2023/08/12 04:17:13;;;;;;;3.05;2.80;;;;;;;;;;5082857;28;20403;-82
2023/08/12 04:19:39;;;;;;;3.08;2.88;;;;;;;;;;5060771;28;20399;-81
2023/08/12 04:22:05;;;;;;;3.90;2.80;;;;;;;;;;5092461;28;20459;-82
2023/08/12 04:24:31;;;;;;;3.17;2.85;;;;;;;;;;5096892;28;20385;-81
2023/08/12 04:26:57;;;;;;;2.80;2.60;;;;;;;;;;5096348;28;20526;-82
2023/08/12 04:29:23;;;;;;;2.95;2.75;;;;;;;;;;5094274;28;20409;-81
2023/08/12 04:31:49;;;;;;;2.80;2.60;;;;;;;;;;5076281;28;20391;-81
2023/08/12 04:34:15;;;;;;;2.90;2.70;;;;;;;;;;5075983;28;20380;-81
2023/08/12 04:36:41;;;;;;;3.00;2.80;;;;;;;;;;5076665;28;20383;-82
2023/08/12 04:39:07;;;;;;;3.08;2.88;;;;;;;;;;5076103;28;20458;-82
2023/08/12 04:41:33;;;;;;;3.15;2.80;;;;;;;;;;5076629;28;20383;-82
2023/08/12 04:43:59;;;;;;;4.50;2.87;;;;;;;;;;5077347;28;20484;-82
2023/08/12 04:46:25;;;;;;;4.37;3.20;;;;;;;;;;5077413;28;20410;-82
2023/08/12 04:48:52;;;;;;;2.87;2.67;;;;;;;;;;5076797;28;20384;-81
2023/08/12 04:51:17;;;;;;;3.17;2.90;;;;;;;;;;5076171;28;20867;-82
2023/08/12 04:53:44;;;;;;;3.13;2.92;;;;;;;;;;5076153;28;20427;-81
2023/08/12 04:56:10;;;;;;;2.88;2.67;;;;;;;;;;5077663;28;20387;-82
2023/08/12 04:58:36;;;;;;;3.03;2.83;;;;;;;;;;5094360;28;20915;-82
2023/08/12 05:01:02;;;;;;;3.40;3.10;;;;;;;;;;5095966;28;20429;-81
2023/08/12 05:03:28;;;;;;;3.33;3.03;;;;;;;;;;5091397;28;20503;-82
2023/08/12 05:05:54;;;;;;;3.35;2.70;;;;;;;;;;5075301;28;20395;-82
2023/08/12 05:08:20;;;;;;;4.32;3.13;;;;;;;;;;5075607;28;20869;-81
2023/08/12 05:10:49;;;;;;;3.63;3.33;;;;;;;;;;5075769;28;20383;-81
2023/08/12 05:13:15;;;;;;;3.20;3.00;;;;;;;;;;5075628;28;20444;-82
2023/08/12 05:15:41;;;;;;;3.00;2.80;;;;;;;;;;5085026;28;20447;-81
2023/08/12 05:18:07;;;;;;;3.03;2.83;;;;;;;;;;5097029;28;20377;-81
2023/08/12 05:20:33;;;;;;;2.80;2.60;;;;;;;;;;5099080;28;20692;-82
2023/08/12 05:22:59;;;;;;;2.97;2.78;;;;;;;;;;5099278;28;20401;-81
2023/08/12 05:25:25;;;;;;;3.25;2.83;;;;;;;;;;5099784;28;20386;-81
2023/08/12 05:27:51;;;;;;;2.80;2.60;;;;;;;;;;5091061;28;20380;-81
2023/08/12 05:30:17;;;;;;;2.92;2.50;;;;;;;;;;5088420;28;20932;-80
2023/08/12 05:32:45;;;;;;;3.20;2.90;;;;;;;;;;5093469;28;20402;-81
2023/08/12 05:35:11;;;;;;;3.08;2.88;;;;;;;;;;5086892;28;20387;-81
2023/08/12 05:37:37;;;;;;;3.53;2.90;;;;;;;;;;5078848;28;20880;-81
2023/08/12 05:40:07;;;;;;;3.05;2.85;;;;;;;;;;5087718;28;20376;-80
2023/08/12 05:42:33;;;;;;;3.67;3.37;;;;;;;;;;5088804;28;20406;-81
2023/08/12 05:44:59;;;;;;;2.80;2.60;;;;;;;;;;5088185;28;20456;-80
2023/08/12 05:47:25;;;;;;;3.22;2.92;;;;;;;;;;5087394;28;20394;-80
2023/08/12 05:49:51;;;;;;;3.65;3.00;;;;;;;;;;5078801;28;20396;-80
2023/08/12 05:52:17;;;;;;;3.95;3.00;;;;;;;;;;5077994;28;20471;-81
2023/08/12 05:54:43;;;;;;;4.78;3.40;;;;;;;;;;5092039;28;20853;-80
2023/08/12 05:57:09;;;;;;;4.45;4.05;;;;;;;;;;5095690;28;20393;-81
2023/08/12 05:59:35;;;;;;;3.92;3.30;;;;;;;;;;5081561;28;20447;-80
2023/08/12 06:02:01;;;;;;;3.58;3.28;;;;;;;;;;5077979;28;20904;-80
2023/08/12 06:04:27;;;;;;;3.35;3.05;;;;;;;;;;5078150;28;20387;-80
2023/08/12 06:06:53;;;;;;;3.40;2.83;;;;;;;;;;5077718;28;20467;-80
2023/08/12 06:09:19;;;;;;;3.88;3.40;;;;;;;;;;5067540;28;20435;-80
2023/08/12 06:11:45;;;;;;;3.67;3.38;;;;;;;;;;5082797;28;20388;-80
2023/08/12 06:14:11;;;;;;;3.78;3.47;;;;;;;;;;5061400;28;20399;-80
2023/08/12 06:16:37;;;;;;;3.83;3.42;;;;;;;;;;5078632;28;20419;-81
2023/08/12 06:19:03;;;;;;;3.45;3.10;;;;;;;;;;5079588;28;20467;-80
2023/08/12 06:21:29;;;;;;;3.20;3.00;;;;;;;;;;5085030;28;20920;-79
2023/08/12 06:23:56;;;;;;;3.08;2.78;;;;;;;;;;5082500;28;20467;-79
2023/08/12 06:26:22;;;;;;;4.35;3.55;;;;;;;;;;5095935;28;20374;-80
2023/08/12 06:28:48;;;;;;;3.90;3.60;;;;;;;;;;5084790;28;20892;-81
2023/08/12 06:31:14;;;;;;;4.38;3.97;;;;;;;;;;5080761;28;20414;-80
2023/08/12 06:33:39;;;;;;;5.63;4.68;;;;;;;;;;5095670;28;20390;-80
2023/08/12 06:36:06;;;;;;;7.65;4.97;;;;;;;;;;5075300;28;20396;-79
2023/08/12 06:38:32;;;;;;;5.75;4.97;;;;;;;;;;5090765;28;20837;-80
2023/08/12 06:40:58;;;;;;;4.75;4.10;;;;;;;;;;5070976;28;20391;-80
2023/08/12 06:43:24;;;;;;;4.90;4.47;;;;;;;;;;5090198;28;20428;-81
2023/08/12 06:45:50;;;;;;;5.57;4.70;;;;;;;;;;5086482;28;20380;-80
2023/08/12 06:48:17;;;;;;;5.80;5.20;;;;;;;;;;5089405;28;20401;-81
2023/08/12 06:50:45;;;;;;;4.23;3.83;;;;;;;;;;5083084;28;20924;-81
2023/08/12 06:53:11;;;;;;;4.32;3.92;;;;;;;;;;5076760;28;20380;-80
2023/08/12 06:55:37;;;;;;;3.63;3.33;;;;;;;;;;5077037;28;20421;-80
2023/08/12 06:58:03;;;;;;;3.60;3.30;;;;;;;;;;5074061;28;20406;-80
2023/08/12 07:00:29;;;;;;;3.85;3.50;;;;;;;;;;5091853;28;20861;-80
2023/08/12 07:02:58;;;;;;;3.13;2.92;;;;;;;;;;5086817;28;20506;-81
2023/08/12 07:05:24;;;;;;;3.67;3.37;;;;;;;;;;5073359;28;20388;-81
2023/08/12 07:07:50;;;;;;;4.13;3.57;;;;;;;;;;5078751;28;20489;-80
2023/08/12 07:10:16;;;;;;;4.77;3.60;;;;;;;;;;5091312;28;20471;-80
2023/08/12 07:12:42;;;;;;;4.07;3.67;;;;;;;;;;5078554;28;20382;-81
2023/08/12 07:15:10;;;;;;;3.85;3.53;;;;;;;;;;5077137;28;20387;-81
2023/08/12 07:17:36;;;;;;;6.20;4.40;;;;;;;;;;5077241;28;20388;-80
2023/08/12 07:20:04;;;;;;;4.32;3.92;;;;;;;;;;5079524;28;20870;-81
2023/08/12 07:22:30;;;;;;;5.75;4.30;;;;;;;;;;5081152;28;20418;-80
2023/08/12 07:24:56;;;;;;;4.63;4.05;;;;;;;;;;5066699;28;20448;-81
2023/08/12 07:27:22;;;;;;;5.75;4.13;;;;;;;;;;5086735;28;20382;-81
2023/08/12 07:29:48;;;;;;;4.05;3.67;;;;;;;;;;5077946;28;20386;-81
2023/08/12 07:32:14;;;;;;;5.27;4.03;;;;;;;;;;5077391;28;20426;-80
2023/08/12 07:34:40;;;;;;;5.83;4.67;;;;;;;;;;5073481;28;20402;-82
2023/08/12 07:37:06;;;;;;;5.77;4.40;;;;;;;;;;5078833;28;20393;-81
2023/08/12 07:39:32;;;;;;;5.10;4.27;;;;;;;;;;5085837;28;20386;-81
2023/08/12 07:41:58;;;;;;;5.57;3.95;;;;;;;;;;5076055;28;20469;-82
2023/08/12 07:44:24;;;;;;;5.80;4.30;;;;;;;;;;5077484;28;20931;-82
2023/08/12 07:46:50;;;;;;;5.35;4.43;;;;;;;;;;5082941;28;20391;-81
2023/08/12 07:49:16;;;;;;;5.13;4.28;;;;;;;;;;5076347;28;20383;-82
2023/08/12 07:51:42;;;;;;;4.35;4.03;;;;;;;;;;5076620;28;20383;-82
2023/08/12 07:54:08;;;;;;;3.90;3.50;;;;;;;;;;5069511;28;20385;-80
2023/08/12 07:56:34;;;;;;;4.75;3.78;;;;;;;;;;5073620;28;20398;-81
2023/08/12 07:59:00;;;;;;;3.85;3.55;;;;;;;;;;5076952;28;20425;-81
2023/08/12 08:01:26;;;;;;;3.92;3.55;;;;;;;;;;5080738;28;20417;-81
2023/08/12 08:03:52;;;;;;;4.22;3.67;;;;;;;;;;5078717;28;20417;-82
2023/08/12 08:06:18;;;;;;;4.15;3.80;;;;;;;;;;5068063;28;20457;-81
2023/08/12 08:08:44;;;;;;;4.95;4.45;;;;;;;;;;5076439;28;20396;-81
2023/08/12 08:11:10;;;;;;;3.72;3.42;;;;;;;;;;5077304;28;20392;-82
2023/08/12 08:13:36;;;;;;;5.78;3.70;;;;;;;;;;5076666;28;20392;-81
2023/08/12 08:16:02;;;;;;;3.67;3.17;;;;;;;;;;5076220;28;20382;-81
2023/08/12 08:18:28;;;;;;;4.30;3.90;;;;;;;;;;5072554;28;20874;-82
2023/08/12 08:20:54;;;;;;;4.37;3.70;;;;;;;;;;5068180;28;20412;-81
2023/08/12 08:23:20;;;;;;;3.92;3.60;;;;;;;;;;5080762;28;20504;-82
2023/08/12 08:25:46;;;;;;;4.25;3.60;;;;;;;;;;5079598;28;20406;-81
2023/08/12 08:28:12;;;;;;;4.60;4.18;;;;;;;;;;5088090;28;20384;-81
2023/08/12 08:30:38;;;;;;;3.90;3.60;;;;;;;;;;5076083;28;20857;-81
2023/08/12 08:33:06;;;;;;;3.90;3.60;;;;;;;;;;5075480;28;20388;-80
2023/08/12 08:35:32;;;;;;;3.67;3.37;;;;;;;;;;5075928;28;20380;-80
2023/08/12 08:37:58;;;;;;;5.17;4.30;;;;;;;;;;5090225;28;20382;-81
2023/08/12 08:40:24;;;;;;;3.87;3.47;;;;;;;;;;5085016;28;20378;-82
2023/08/12 08:42:53;;;;;;;3.80;3.50;;;;;;;;;;5095600;28;20402;-81
2023/08/12 08:45:20;;;;;;;4.60;3.57;;;;;;;;;;5088959;28;20384;-82
2023/08/12 08:47:47;;;;;;;4.53;4.05;;;;;;;;;;5071397;28;20401;-81
2023/08/12 08:50:14;;;;;;;4.28;3.50;;;;;;;;;;5078674;28;20401;-82
2023/08/12 08:52:41;;;;;;;4.10;3.78;;;;;;;;;;5087307;28;20408;-81
2023/08/12 08:55:08;;;;;;;3.95;3.65;;;;;;;;;;5083206;28;20382;-82
2023/08/12 08:57:34;;;;;;;3.60;3.30;;;;;;;;;;5082891;28;20376;-82
2023/08/12 09:00:00;;;;;;;3.65;3.28;;;;;;;;;;5085476;28;20379;-82
2023/08/12 09:02:26;;;;;;;4.05;3.58;;;;;;;;;;5084255;28;20462;-82
2023/08/12 09:04:53;;;;;;;3.88;3.47;;;;;;;;;;5083306;28;20395;-81
2023/08/12 09:07:19;;;;;;;4.80;3.40;;;;;;;;;;5085213;28;20380;-82
2023/08/12 09:09:48;;;;;;;6.05;3.40;;;;;;;;;;5079928;28;20391;-82
2023/08/12 09:12:15;;;;;;;4.10;3.80;;;;;;;;;;5078892;28;20875;-82
2023/08/12 09:14:41;;;;;;;3.90;3.50;;;;;;;;;;5083761;28;20744;-81
2023/08/12 09:17:07;;;;;;;6.63;3.70;;;;;;;;;;5093074;28;20370;-82
2023/08/12 09:19:33;;;;;;;5.63;3.47;;;;;;;;;;5076276;28;20393;-82
2023/08/12 09:22:00;;;;;;;3.55;3.35;;;;;;;;;;5081963;28;20380;-81
2023/08/12 09:24:26;;;;;;;3.88;3.58;;;;;;;;;;5078756;28;20392;-82
2023/08/12 09:26:53;;;;;;;4.90;3.75;;;;;;;;;;5079361;28;20436;-82
2023/08/12 09:29:19;;;;;;;3.70;3.40;;;;;;;;;;5081618;28;20392;-81
2023/08/12 09:31:45;;;;;;;3.63;3.33;;;;;;;;;;5098107;28;20461;-82
2023/08/12 09:34:11;;;;;;;4.00;3.47;;;;;;;;;;5081217;28;20397;-81
2023/08/12 09:36:37;;;;;;;3.88;3.58;;;;;;;;;;5084059;28;20441;-82
2023/08/12 09:39:08;;;;;;;3.22;2.92;;;;;;;;;;5081836;28;20438;-82
2023/08/12 09:41:34;;;;;;;3.40;3.10;;;;;;;;;;5079213;28;20866;-82
2023/08/12 09:44:02;;;;;;;3.72;3.42;;;;;;;;;;5083749;28;20475;-82
2023/08/12 09:46:28;;;;;;;4.13;3.72;;;;;;;;;;5074263;28;20382;-82
2023/08/12 09:48:54;;;;;;;4.20;3.25;;;;;;;;;;5082438;28;20376;-82
2023/08/12 09:51:24;;;;;;;4.20;3.38;;;;;;;;;;5079053;28;20479;-82
2023/08/12 09:53:50;;;;;;;3.80;3.50;;;;;;;;;;5082940;28;20429;-82
2023/08/12 09:56:18;;;;;;;3.70;3.40;;;;;;;;;;5078720;28;20397;-82
2023/08/12 09:58:44;;;;;;;3.20;2.97;;;;;;;;;;5095472;28;20386;-82
2023/08/12 10:01:11;;;;;;;3.20;2.90;;;;;;;;;;5093912;28;20378;-82
2023/08/12 10:03:37;;;;;;;3.40;3.10;;;;;;;;;;5093273;28;20410;-82
2023/08/12 10:06:03;;;;;;;3.67;3.38;;;;;;;;;;5094664;28;20378;-82
2023/08/12 10:08:30;;;;;;;3.83;3.30;;;;;;;;;;5078609;28;20403;-82
2023/08/12 10:10:56;;;;;;;4.65;3.38;;;;;;;;;;5080730;28;20894;-81
2023/08/12 10:13:22;;;;;;;3.45;3.20;;;;;;;;;;5079938;28;20409;-82
2023/08/12 10:15:48;;;;;;;3.25;2.95;;;;;;;;;;5081887;28;20459;-82
2023/08/12 10:18:15;;;;;;;3.40;3.10;;;;;;;;;;5087823;28;20387;-81
2023/08/12 10:20:41;;;;;;;3.35;3.08;;;;;;;;;;5092640;28;20384;-82
2023/08/12 10:23:08;;;;;;;3.70;3.40;;;;;;;;;;5091224;28;20414;-82
2023/08/12 10:25:34;;;;;;;3.42;3.13;;;;;;;;;;5078564;28;20451;-82
2023/08/12 10:28:01;;;;;;;3.80;3.40;;;;;;;;;;5089909;28;20391;-82
2023/08/12 10:30:30;;;;;;;3.95;3.30;;;;;;;;;;5078396;28;20383;-82
2023/08/12 10:32:56;;;;;;;3.58;3.22;;;;;;;;;;5092221;28;20509;-82
2023/08/12 10:35:23;;;;;;;3.80;3.50;;;;;;;;;;5088792;28;20385;-83
2023/08/12 10:37:50;;;;;;;3.20;2.90;;;;;;;;;;5082972;28;20779;-82
2023/08/12 10:40:23;;;;;;;3.70;3.30;;;;;;;;;;5098108;28;20465;-82
2023/08/12 10:42:49;;;;;;;3.22;3.03;;;;;;;;;;5081133;28;20495;-82
2023/08/12 10:45:16;;;;;;;5.10;3.38;;;;;;;;;;5079522;28;20418;-82
2023/08/12 10:47:44;;;;;;;3.63;3.05;;;;;;;;;;5092929;28;20409;-82
2023/08/12 10:50:20;;;;;;;3.78;3.40;;;;;;;;;;5088708;28;20431;-82
2023/08/12 10:52:46;;;;;;;4.65;3.53;;;;;;;;;;5072626;28;20390;-82
2023/08/12 10:55:23;;;;;;;5.47;4.07;;;;;;;;;;5069894;28;20438;-83
2023/08/12 10:57:49;;;;;;;4.82;3.83;;;;;;;;;;5077923;28;20376;-82
2023/08/12 11:00:24;;;;;;;4.70;3.83;;;;;;;;;;5078161;28;20379;-82
2023/08/12 11:02:51;;;;;;;3.80;3.50;;;;;;;;;;5085838;28;21213;-82
2023/08/12 11:05:20;;;;;;;3.63;3.20;;;;;;;;;;5080091;28;20462;-82
2023/08/12 11:08:00;;;;;;;3.95;3.13;;;;;;;;;;5077349;28;20432;-82
2023/08/12 11:10:27;;;;;;;3.35;3.05;;;;;;;;;;5076239;28;20480;-82
2023/08/12 11:12:56;;;;;;;5.57;4.90;;;;;;;;;;5077650;28;20409;-83
2023/08/12 11:15:42;;;;;;;5.18;4.50;;;;;;;;;;5092383;28;20384;-83
2023/08/12 11:18:08;;;;;;;3.75;3.45;;;;;;;;;;5081839;28;20449;-82
2023/08/12 11:20:34;;;;;;;3.63;3.33;;;;;;;;;;5079275;28;20784;-82
2023/08/12 11:23:01;;;;;;;3.40;3.00;;;;;;;;;;5077732;28;20415;-82
2023/08/12 11:25:29;;;;;;;3.13;2.83;;;;;;;;;;5077259;28;20402;-81
2023/08/12 11:27:55;;;;;;;3.33;3.00;;;;;;;;;;5063564;28;20388;-83
2023/08/12 11:30:22;;;;;;;3.60;3.30;;;;;;;;;;5070135;28;20887;-82
2023/08/12 11:32:49;;;;;;;3.10;2.80;;;;;;;;;;5080366;28;20380;-82
2023/08/12 11:35:16;;;;;;;3.50;2.90;;;;;;;;;;5067852;28;20386;-82
2023/08/12 11:37:43;;;;;;;3.13;2.83;;;;;;;;;;5080272;28;20390;-82
2023/08/12 11:40:10;;;;;;;2.80;2.60;;;;;;;;;;5077296;28;20465;-82
2023/08/12 11:42:40;;;;;;;2.88;2.65;;;;;;;;;;5071937;28;20421;-82
2023/08/12 11:45:09;;;;;;;2.72;2.53;;;;;;;;;;5079488;28;20391;-82
2023/08/12 11:47:36;;;;;;;3.13;2.83;;;;;;;;;;5077261;28;20388;-82
2023/08/12 11:50:03;;;;;;;3.97;2.78;;;;;;;;;;5072789;28;20478;-82
2023/08/12 11:52:29;;;;;;;3.33;3.03;;;;;;;;;;5078953;28;20382;-82
2023/08/12 11:54:56;;;;;;;4.25;3.00;;;;;;;;;;5071546;28;20396;-82
2023/08/12 11:57:23;;;;;;;5.18;3.05;;;;;;;;;;5077652;28;20392;-82
2023/08/12 11:59:49;;;;;;;3.90;3.10;;;;;;;;;;5080203;28;20383;-81
2023/08/12 12:02:15;;;;;;;3.30;2.80;;;;;;;;;;5065204;28;20535;-83
2023/08/12 12:04:43;;;;;;;3.10;2.72;;;;;;;;;;5078041;28;20473;-82
2023/08/12 12:07:22;;;;;;;2.88;2.67;;;;;;;;;;5079302;28;20821;-82
2023/08/12 12:09:51;;;;;;;3.40;2.80;;;;;;;;;;5077759;28;20733;-82
2023/08/12 12:12:17;;;;;;;2.92;2.63;;;;;;;;;;5075966;28;20395;-81
2023/08/12 12:14:43;;;;;;;3.47;2.70;;;;;;;;;;5069531;28;20382;-81
2023/08/12 12:17:13;;;;;;;3.53;2.55;;;;;;;;;;5085062;28;20412;-82
2023/08/12 12:19:41;;;;;;;2.55;2.35;;;;;;;;;;5077945;28;20364;-81
2023/08/12 12:22:07;;;;;;;2.53;2.22;;;;;;;;;;5076098;28;20375;-81
2023/08/12 12:24:46;;;;;;;2.85;2.65;;;;;;;;;;5075867;28;20388;-81
2023/08/12 12:27:12;;;;;;;2.60;2.40;;;;;;;;;;5076163;28;20772;-82
2023/08/12 12:29:38;;;;;;;3.75;2.42;;;;;;;;;;5075356;28;20454;-81
2023/08/12 12:32:04;;;;;;;2.80;2.60;;;;;;;;;;5067736;28;20366;-82
2023/08/12 12:34:30;;;;;;;2.67;1.90;;;;;;;;;;5068469;28;20392;-82
2023/08/12 12:36:56;;;;;;;2.80;2.60;;;;;;;;;;5087342;28;20387;-82
2023/08/12 12:39:25;;;;;;;2.60;2.40;;;;;;;;;;5075621;28;20462;-81
2023/08/12 12:41:51;;;;;;;2.72;2.25;;;;;;;;;;5096143;28;20473;-81
2023/08/12 12:44:17;;;;;;;2.47;1.83;;;;;;;;;;5096045;28;20434;-81
2023/08/12 12:46:43;;;;;;;2.53;1.80;;;;;;;;;;5096461;28;20385;-82
2023/08/12 12:49:08;;;;;;;2.20;1.70;;;;;;;;;;5080787;28;20466;-81
2023/08/12 12:51:34;;;;;;;2.87;2.10;;;;;;;;;;5091415;28;20378;-82
2023/08/12 12:54:00;;;;;;;2.87;1.90;;;;;;;;;;5091252;28;20386;-82
2023/08/12 12:56:26;;;;;;;2.80;1.80;;;;;;;;;;5078213;28;20862;-81
2023/08/12 12:58:52;;;;;;;1.70;1.60;;;;;;;;;;5078393;28;20438;-82
2023/08/12 13:01:18;;;;;;;1.50;1.40;;;;;;;;;;5078898;28;20431;-80
2023/08/12 13:03:44;;;;;;;1.90;1.50;;;;;;;;;;5076916;28;20880;-82
2023/08/12 13:06:10;;;;;;;2.20;1.60;;;;;;;;;;5075696;28;20387;-81
2023/08/12 13:08:36;;;;;;;1.52;1.42;;;;;;;;;;5075183;28;20409;-81
2023/08/12 13:11:02;;;;;;;1.85;1.60;;;;;;;;;;5082164;28;20723;-84
2023/08/12 13:13:28;;;;;;;2.30;1.83;;;;;;;;;;5075786;28;20379;-84
2023/08/12 13:15:54;;;;;;;2.58;1.98;;;;;;;;;;5072525;28;20376;-84
2023/08/12 13:18:20;;;;;;;3.28;3.05;;;;;;;;;;5081238;28;20402;-84
2023/08/12 13:20:46;;;;;;;2.55;2.35;;;;;;;;;;5082013;28;20407;-83
2023/08/12 13:23:12;;;;;;;2.85;2.55;;;;;;;;;;5078893;28;20414;-84
2023/08/12 13:25:38;;;;;;;3.47;2.75;;;;;;;;;;5076996;28;20455;-84
2023/08/12 13:28:05;;;;;;;3.25;2.60;;;;;;;;;;5086169;28;20380;-84
2023/08/12 13:30:31;;;;;;;1.70;1.60;;;;;;;;;;5088311;28;20406;-84
2023/08/12 13:32:57;;;;;;;3.22;1.70;;;;;;;;;;5094106;28;20380;-84
2023/08/12 13:35:24;;;;;;;2.30;1.40;;;;;;;;;;5097274;28;20442;-84
2023/08/12 13:37:53;;;;;;;3.00;1.85;;;;;;;;;;5096389;28;20457;-84
2023/08/12 13:40:19;;;;;;;3.45;1.85;;;;;;;;;;5098164;28;20469;-84
2023/08/12 13:42:46;;;;;;;2.53;1.98;;;;;;;;;;5084180;28;20412;-84
2023/08/12 13:45:12;;;;;;;1.88;1.67;;;;;;;;;;5092809;28;20462;-84
2023/08/12 13:47:38;;;;;;;1.90;1.70;;;;;;;;;;5090951;28;20787;-84
2023/08/12 13:50:05;;;;;;;3.33;2.67;;;;;;;;;;5078461;28;20865;-84
2023/08/12 13:52:31;;;;;;;2.83;1.90;;;;;;;;;;5089444;28;20701;-84
2023/08/12 13:54:57;;;;;;;2.13;1.70;;;;;;;;;;5096607;28;20388;-84
2023/08/12 13:57:23;;;;;;;2.90;1.95;;;;;;;;;;5079485;28;20784;-84
2023/08/12 13:59:49;;;;;;;2.67;1.90;;;;;;;;;;5081674;28;20490;-84
2023/08/12 14:02:16;;;;;;;2.35;1.98;;;;;;;;;;5090565;28;20443;-84
2023/08/12 14:04:42;;;;;;;2.72;1.88;;;;;;;;;;5091911;28;20874;-84
2023/08/12 14:07:08;;;;;;;2.35;1.92;;;;;;;;;;5094686;28;20380;-84
2023/08/12 14:09:34;;;;;;;3.10;2.58;;;;;;;;;;5090635;28;20382;-84
2023/08/12 14:12:00;;;;;;;2.50;2.30;;;;;;;;;;5096571;28;20733;-84
2023/08/12 14:14:27;;;;;;;2.90;1.92;;;;;;;;;;5079487;28;20388;-84
2023/08/12 14:16:54;;;;;;;2.63;2.20;;;;;;;;;;5093968;28;20382;-84
2023/08/12 14:19:20;;;;;;;4.03;2.65;;;;;;;;;;5082127;28;20437;-84
2023/08/12 14:21:46;;;;;;;3.15;2.25;;;;;;;;;;5089478;28;20923;-84
2023/08/12 14:24:13;;;;;;;2.50;2.30;;;;;;;;;;5084538;28;20453;-84
2023/08/12 14:26:39;;;;;;;3.30;3.00;;;;;;;;;;5098981;28;20374;-84
2023/08/12 14:29:05;;;;;;;4.93;3.85;;;;;;;;;;5085671;28;20380;-84
2023/08/12 14:31:31;;;;;;;4.45;3.30;;;;;;;;;;5099281;28;20378;-83
2023/08/12 14:33:57;;;;;;;4.65;4.20;;;;;;;;;;5100097;28;20378;-84
2023/08/12 14:36:23;;;;;;;3.40;3.10;;;;;;;;;;5093617;28;20383;-83
2023/08/12 14:38:50;;;;;;;3.38;2.65;;;;;;;;;;5079176;28;20761;-84